Decoded Metar for PAKK (KOYUK in AK, USA) (IATA:KKA) | Meteo·Mobile Aviation Weather
aviador You're here:

PAKK Decoded Metar

KOYUK in AK, USA
Report Time2019-07-16 21:56:00
UTC Time2019-07-16 22:52:47
Flight Rules vfr VFR
Wind180° at 08 kt
W.Decomp.*RWY 19: 7.2 kt HW 3.5 kt LCW
Visibility9999 m
Phenomena:N/A
Clouds:N/A
Expected CloudBase > 1,600 ft AGL from Temp-Dew spread
CeilingNone
Temp20°C (ISA +5)
Dew Point16°C (78% RH)
AAT19.1°C
QNH1003 hPa
Density Alt1,355 ft
Elevation154 ft
Report Wrong Elevation
Raw Report
PAKK 162156Z AUTO 18008KT 10SM CLR 20/16 A2961 RMK AO2 SLP039
T02000161=

Extra information for PAKK:More info

Metar Taf Metar & Taf Last 4 Metars F.Rules Stats Wind Profile Meteogram Temp Stats Airport Information Weather charts Add Link Nearby VenuesMetar ALERT Operation Metar Decoded Social comments

AIRNAV info for PAKK